sensor_id;sensor_type;location;lat;lon;timestamp;pressure;altitude;pressure_sealevel;temperature;humidity
17260;BME280;8746;49.230;9.220;2022-07-18T00:02:24;100699.72;;;16.35;58.71
17260;BME280;8746;49.230;9.220;2022-07-18T00:04:49;100692.06;;;16.29;58.77
17260;BME280;8746;49.230;9.220;2022-07-18T00:07:14;100687.53;;;16.13;58.41
17260;BME280;8746;49.230;9.220;2022-07-18T00:09:41;100693.53;;;16.17;58.59
17260;BME280;8746;49.230;9.220;2022-07-18T00:12:08;100691.53;;;16.05;58.04
17260;BME280;8746;49.230;9.220;2022-07-18T00:14:34;100683.44;;;16.06;60.39
17260;BME280;8746;49.230;9.220;2022-07-18T00:17:00;100682.41;;;16.09;61.38
17260;BME280;8746;49.230;9.220;2022-07-18T00:19:27;100694.72;;;15.94;61.63
17260;BME280;8746;49.230;9.220;2022-07-18T00:21:52;100688.06;;;15.85;61.55
17260;BME280;8746;49.230;9.220;2022-07-18T00:24:18;100678.09;;;15.71;61.84
17260;BME280;8746;49.230;9.220;2022-07-18T00:26:43;100686.63;;;15.78;61.45
17260;BME280;8746;49.230;9.220;2022-07-18T00:29:09;100682.59;;;15.88;62.49
17260;BME280;8746;49.230;9.220;2022-07-18T00:31:35;100685.44;;;15.66;63.45
17260;BME280;8746;49.230;9.220;2022-07-18T00:34:01;100679.47;;;15.43;63.79
17260;BME280;8746;49.230;9.220;2022-07-18T00:36:27;100685.41;;;15.48;63.71
17260;BME280;8746;49.230;9.220;2022-07-18T00:38:53;100694.47;;;15.44;63.97
17260;BME280;8746;49.230;9.220;2022-07-18T00:41:19;100684.06;;;15.39;62.68
17260;BME280;8746;49.230;9.220;2022-07-18T00:43:44;100694.97;;;15.52;61.04
17260;BME280;8746;49.230;9.220;2022-07-18T00:46:10;100689.81;;;15.67;58.18
17260;BME280;8746;49.230;9.220;2022-07-18T00:48:40;100688.44;;;15.77;57.07
17260;BME280;8746;49.230;9.220;2022-07-18T00:51:06;100691.75;;;15.82;56.90
17260;BME280;8746;49.230;9.220;2022-07-18T00:53:32;100695.31;;;15.81;56.68
17260;BME280;8746;49.230;9.220;2022-07-18T00:55:58;100706.69;;;15.66;59.95
17260;BME280;8746;49.230;9.220;2022-07-18T00:58:24;100705.41;;;15.38;61.47
17260;BME280;8746;49.230;9.220;2022-07-18T01:00:49;100703.91;;;15.13;61.64
17260;BME280;8746;49.230;9.220;2022-07-18T01:03:34;100708.75;;;15.05;62.88
17260;BME280;8746;49.230;9.220;2022-07-18T01:05:59;100709.06;;;14.97;63.72
17260;BME280;8746;49.230;9.220;2022-07-18T01:08:25;100717.84;;;14.99;63.68
17260;BME280;8746;49.230;9.220;2022-07-18T01:10:50;100716.84;;;15.02;62.96
17260;BME280;8746;49.230;9.220;2022-07-18T01:13:17;100718.13;;;14.93;62.52
17260;BME280;8746;49.230;9.220;2022-07-18T01:15:42;100718.13;;;14.93;61.89
17260;BME280;8746;49.230;9.220;2022-07-18T01:18:08;100709.50;;;15.07;59.60
17260;BME280;8746;49.230;9.220;2022-07-18T01:20:33;100712.38;;;15.21;57.15
17260;BME280;8746;49.230;9.220;2022-07-18T01:22:58;100705.13;;;15.25;55.90
17260;BME280;8746;49.230;9.220;2022-07-18T01:25:25;100706.66;;;15.31;56.38
17260;BME280;8746;49.230;9.220;2022-07-18T01:27:50;100706.19;;;15.40;56.26
17260;BME280;8746;49.230;9.220;2022-07-18T01:30:15;100702.97;;;15.33;56.61
17260;BME280;8746;49.230;9.220;2022-07-18T01:32:42;100703.06;;;15.32;57.19
17260;BME280;8746;49.230;9.220;2022-07-18T01:35:08;100705.91;;;15.08;60.86
17260;BME280;8746;49.230;9.220;2022-07-18T01:37:33;100703.88;;;14.75;63.66
17260;BME280;8746;49.230;9.220;2022-07-18T01:39:59;100702.44;;;14.68;62.51
17260;BME280;8746;49.230;9.220;2022-07-18T01:42:24;100712.25;;;14.86;59.11
17260;BME280;8746;49.230;9.220;2022-07-18T01:44:49;100704.63;;;14.98;58.19
17260;BME280;8746;49.230;9.220;2022-07-18T01:47:15;100708.88;;;15.02;58.02
17260;BME280;8746;49.230;9.220;2022-07-18T01:49:41;100714.69;;;15.10;57.68
17260;BME280;8746;49.230;9.220;2022-07-18T01:52:07;100704.47;;;15.01;58.55
17260;BME280;8746;49.230;9.220;2022-07-18T01:54:33;100713.38;;;14.81;61.14
17260;BME280;8746;49.230;9.220;2022-07-18T01:57:01;100704.13;;;14.50;63.26
17260;BME280;8746;49.230;9.220;2022-07-18T01:59:27;100712.69;;;14.36;62.73
17260;BME280;8746;49.230;9.220;2022-07-18T02:01:52;100706.16;;;14.43;62.17
17260;BME280;8746;49.230;9.220;2022-07-18T02:04:18;100705.38;;;14.41;63.60
17260;BME280;8746;49.230;9.220;2022-07-18T02:06:44;100714.78;;;14.27;64.08
17260;BME280;8746;49.230;9.220;2022-07-18T02:09:11;100712.75;;;14.14;65.33
17260;BME280;8746;49.230;9.220;2022-07-18T02:11:36;100716.91;;;13.99;66.07
17260;BME280;8746;49.230;9.220;2022-07-18T02:14:04;100717.28;;;13.89;66.37
17260;BME280;8746;49.230;9.220;2022-07-18T02:16:30;100717.50;;;14.05;66.06
17260;BME280;8746;49.230;9.220;2022-07-18T02:18:56;100723.63;;;14.07;66.23
17260;BME280;8746;49.230;9.220;2022-07-18T02:21:22;100723.69;;;14.06;65.92
17260;BME280;8746;49.230;9.220;2022-07-18T02:23:48;100713.09;;;14.06;64.43
17260;BME280;8746;49.230;9.220;2022-07-18T02:26:16;100715.59;;;14.09;63.87
17260;BME280;8746;49.230;9.220;2022-07-18T02:28:41;100717.97;;;14.15;63.74
17260;BME280;8746;49.230;9.220;2022-07-18T02:31:07;100705.59;;;14.16;62.40
17260;BME280;8746;49.230;9.220;2022-07-18T02:33:32;100712.22;;;14.26;62.05
17260;BME280;8746;49.230;9.220;2022-07-18T02:35:58;100715.47;;;14.33;61.21
17260;BME280;8746;49.230;9.220;2022-07-18T02:38:24;100717.13;;;14.35;60.01
17260;BME280;8746;49.230;9.220;2022-07-18T02:40:49;100718.59;;;14.42;59.11
17260;BME280;8746;49.230;9.220;2022-07-18T02:43:15;100718.31;;;14.49;58.74
17260;BME280;8746;49.230;9.220;2022-07-18T02:45:40;100714.94;;;14.45;58.97
17260;BME280;8746;49.230;9.220;2022-07-18T02:48:05;100718.44;;;14.46;58.78
17260;BME280;8746;49.230;9.220;2022-07-18T02:50:30;100718.91;;;14.35;59.45
17260;BME280;8746;49.230;9.220;2022-07-18T02:52:56;100710.94;;;14.35;58.35
17260;BME280;8746;49.230;9.220;2022-07-18T02:55:22;100713.94;;;14.27;58.87
17260;BME280;8746;49.230;9.220;2022-07-18T02:57:49;100720.09;;;14.27;60.28
17260;BME280;8746;49.230;9.220;2022-07-18T03:00:14;100722.63;;;14.10;62.80
17260;BME280;8746;49.230;9.220;2022-07-18T03:02:40;100726.97;;;13.90;64.40
17260;BME280;8746;49.230;9.220;2022-07-18T03:05:07;100720.81;;;13.68;65.43
17260;BME280;8746;49.230;9.220;2022-07-18T03:07:33;100725.53;;;13.39;66.53
17260;BME280;8746;49.230;9.220;2022-07-18T03:09:59;100728.50;;;13.53;65.78
17260;BME280;8746;49.230;9.220;2022-07-18T03:12:24;100728.78;;;13.45;66.28
17260;BME280;8746;49.230;9.220;2022-07-18T03:14:50;100726.19;;;13.44;66.81
17260;BME280;8746;49.230;9.220;2022-07-18T03:17:15;100729.94;;;13.14;67.22
17260;BME280;8746;49.230;9.220;2022-07-18T03:19:41;100729.78;;;13.19;67.23
17260;BME280;8746;49.230;9.220;2022-07-18T03:22:06;100727.94;;;13.21;67.30
17260;BME280;8746;49.230;9.220;2022-07-18T03:24:32;100725.41;;;13.18;66.85
17260;BME280;8746;49.230;9.220;2022-07-18T03:26:58;100722.75;;;13.18;67.02
17260;BME280;8746;49.230;9.220;2022-07-18T03:29:24;100727.38;;;13.13;66.60
17260;BME280;8746;49.230;9.220;2022-07-18T03:31:49;100730.59;;;13.21;67.32
17260;BME280;8746;49.230;9.220;2022-07-18T03:34:15;100733.31;;;12.96;69.49
17260;BME280;8746;49.230;9.220;2022-07-18T03:36:41;100724.97;;;13.07;69.01
17260;BME280;8746;49.230;9.220;2022-07-18T03:39:09;100731.41;;;12.99;69.23
17260;BME280;8746;49.230;9.220;2022-07-18T03:41:35;100726.38;;;12.92;68.30
17260;BME280;8746;49.230;9.220;2022-07-18T03:44:01;100725.44;;;12.94;68.06
17260;BME280;8746;49.230;9.220;2022-07-18T03:46:27;100726.97;;;13.00;68.14
17260;BME280;8746;49.230;9.220;2022-07-18T03:48:52;100727.78;;;13.02;67.94
17260;BME280;8746;49.230;9.220;2022-07-18T03:51:17;100727.72;;;13.04;68.51
17260;BME280;8746;49.230;9.220;2022-07-18T03:53:43;100719.44;;;13.13;66.52
17260;BME280;8746;49.230;9.220;2022-07-18T03:56:08;100715.72;;;13.17;66.83
17260;BME280;8746;49.230;9.220;2022-07-18T03:58:34;100712.97;;;13.20;65.29
17260;BME280;8746;49.230;9.220;2022-07-18T04:00:59;100711.66;;;13.30;66.53
17260;BME280;8746;49.230;9.220;2022-07-18T04:03:25;100713.56;;;13.27;66.47
17260;BME280;8746;49.230;9.220;2022-07-18T04:05:50;100713.25;;;13.35;65.18
17260;BME280;8746;49.230;9.220;2022-07-18T04:08:16;100715.00;;;13.36;63.68
17260;BME280;8746;49.230;9.220;2022-07-18T04:10:41;100710.84;;;13.28;65.04
17260;BME280;8746;49.230;9.220;2022-07-18T04:13:08;100715.13;;;13.33;66.06
17260;BME280;8746;49.230;9.220;2022-07-18T04:15:34;100710.06;;;13.26;66.87
17260;BME280;8746;49.230;9.220;2022-07-18T04:17:59;100711.56;;;13.34;64.55
17260;BME280;8746;49.230;9.220;2022-07-18T04:20:25;100715.53;;;13.45;63.10
17260;BME280;8746;49.230;9.220;2022-07-18T04:22:55;100713.94;;;13.63;60.71
17260;BME280;8746;49.230;9.220;2022-07-18T04:25:23;100719.53;;;13.78;60.38
17260;BME280;8746;49.230;9.220;2022-07-18T04:27:50;100723.34;;;13.93;59.04
17260;BME280;8746;49.230;9.220;2022-07-18T04:30:21;100726.59;;;14.00;58.51
17260;BME280;8746;49.230;9.220;2022-07-18T04:32:48;100725.66;;;14.01;58.09
17260;BME280;8746;49.230;9.220;2022-07-18T04:35:14;100727.94;;;14.10;58.02
17260;BME280;8746;49.230;9.220;2022-07-18T04:37:40;100722.69;;;14.08;57.51
17260;BME280;8746;49.230;9.220;2022-07-18T04:40:08;100716.69;;;14.25;57.02
17260;BME280;8746;49.230;9.220;2022-07-18T04:42:34;100725.69;;;14.21;60.04
17260;BME280;8746;49.230;9.220;2022-07-18T04:44:59;100720.97;;;14.07;61.62
17260;BME280;8746;49.230;9.220;2022-07-18T04:47:26;100714.53;;;14.34;59.93
17260;BME280;8746;49.230;9.220;2022-07-18T04:49:51;100717.59;;;14.45;61.12
17260;BME280;8746;49.230;9.220;2022-07-18T04:52:16;100716.59;;;14.48;61.69
17260;BME280;8746;49.230;9.220;2022-07-18T04:54:42;100718.13;;;14.53;60.17
17260;BME280;8746;49.230;9.220;2022-07-18T04:57:07;100707.75;;;14.68;58.78
17260;BME280;8746;49.230;9.220;2022-07-18T04:59:36;100705.78;;;14.73;56.98
17260;BME280;8746;49.230;9.220;2022-07-18T05:02:01;100705.97;;;14.68;56.39
17260;BME280;8746;49.230;9.220;2022-07-18T05:04:27;100712.00;;;14.51;56.93
17260;BME280;8746;49.230;9.220;2022-07-18T05:06:52;100715.44;;;14.74;55.37
17260;BME280;8746;49.230;9.220;2022-07-18T05:09:17;100716.47;;;14.90;55.23
17260;BME280;8746;49.230;9.220;2022-07-18T05:11:43;100709.94;;;14.98;54.42
17260;BME280;8746;49.230;9.220;2022-07-18T05:14:08;100714.47;;;15.15;54.13
17260;BME280;8746;49.230;9.220;2022-07-18T05:16:33;100715.69;;;15.27;53.64
17260;BME280;8746;49.230;9.220;2022-07-18T05:18:59;100718.72;;;15.38;53.28
17260;BME280;8746;49.230;9.220;2022-07-18T05:21:24;100716.69;;;15.43;53.10
17260;BME280;8746;49.230;9.220;2022-07-18T05:23:50;100705.31;;;15.59;53.25
17260;BME280;8746;49.230;9.220;2022-07-18T05:26:15;100711.56;;;15.58;53.39
17260;BME280;8746;49.230;9.220;2022-07-18T05:28:40;100713.03;;;15.82;54.11
17260;BME280;8746;49.230;9.220;2022-07-18T05:31:06;100716.53;;;15.83;54.88
17260;BME280;8746;49.230;9.220;2022-07-18T05:33:31;100715.38;;;15.89;54.70
17260;BME280;8746;49.230;9.220;2022-07-18T05:35:57;100716.72;;;15.97;52.13
17260;BME280;8746;49.230;9.220;2022-07-18T05:38:22;100716.72;;;15.97;49.95
17260;BME280;8746;49.230;9.220;2022-07-18T05:40:47;100715.25;;;16.09;49.84
17260;BME280;8746;49.230;9.220;2022-07-18T05:43:13;100712.78;;;16.22;49.12
17260;BME280;8746;49.230;9.220;2022-07-18T05:45:38;100707.94;;;16.30;48.05
17260;BME280;8746;49.230;9.220;2022-07-18T05:48:05;100711.31;;;16.34;47.95
17260;BME280;8746;49.230;9.220;2022-07-18T05:50:30;100716.44;;;16.55;48.13
17260;BME280;8746;49.230;9.220;2022-07-18T05:52:56;100710.44;;;16.85;47.36
17260;BME280;8746;49.230;9.220;2022-07-18T05:55:22;100710.88;;;16.93;47.71
17260;BME280;8746;49.230;9.220;2022-07-18T05:57:47;100710.06;;;17.08;47.77
17260;BME280;8746;49.230;9.220;2022-07-18T06:00:15;100709.91;;;17.27;48.72
17260;BME280;8746;49.230;9.220;2022-07-18T06:02:41;100707.63;;;17.52;46.57
17260;BME280;8746;49.230;9.220;2022-07-18T06:05:07;100704.81;;;17.55;46.76
17260;BME280;8746;49.230;9.220;2022-07-18T06:07:33;100699.06;;;17.77;47.24
17260;BME280;8746;49.230;9.220;2022-07-18T06:09:58;100709.66;;;17.78;44.97
17260;BME280;8746;49.230;9.220;2022-07-18T06:12:23;100712.53;;;17.59;45.62
17260;BME280;8746;49.230;9.220;2022-07-18T06:14:49;100702.78;;;17.74;45.44
17260;BME280;8746;49.230;9.220;2022-07-18T06:17:15;100701.13;;;17.88;46.22
17260;BME280;8746;49.230;9.220;2022-07-18T06:19:40;100702.06;;;17.87;44.64
17260;BME280;8746;49.230;9.220;2022-07-18T06:22:07;100705.31;;;17.92;45.70
17260;BME280;8746;49.230;9.220;2022-07-18T06:24:32;100705.97;;;18.12;44.83
17260;BME280;8746;49.230;9.220;2022-07-18T06:26:58;100703.91;;;18.17;44.61
17260;BME280;8746;49.230;9.220;2022-07-18T06:29:23;100707.53;;;18.30;44.20
17260;BME280;8746;49.230;9.220;2022-07-18T06:31:48;100699.81;;;18.40;44.24
17260;BME280;8746;49.230;9.220;2022-07-18T06:34:14;100698.03;;;18.55;43.82
17260;BME280;8746;49.230;9.220;2022-07-18T06:36:39;100695.94;;;18.60;44.29
17260;BME280;8746;49.230;9.220;2022-07-18T06:39:05;100696.13;;;18.71;43.82
17260;BME280;8746;49.230;9.220;2022-07-18T06:41:36;100694.03;;;18.91;44.41
17260;BME280;8746;49.230;9.220;2022-07-18T06:44:02;100676.91;;;19.08;43.33
17260;BME280;8746;49.230;9.220;2022-07-18T06:46:27;100676.53;;;19.14;43.35
17260;BME280;8746;49.230;9.220;2022-07-18T06:48:53;100677.59;;;19.39;41.37
17260;BME280;8746;49.230;9.220;2022-07-18T06:51:18;100676.03;;;19.49;39.93
17260;BME280;8746;49.230;9.220;2022-07-18T06:53:44;100673.97;;;19.40;41.37
17260;BME280;8746;49.230;9.220;2022-07-18T06:56:10;100678.75;;;19.62;40.06
17260;BME280;8746;49.230;9.220;2022-07-18T06:58:35;100672.03;;;19.69;40.01
17260;BME280;8746;49.230;9.220;2022-07-18T07:01:00;100681.78;;;19.70;40.43
17260;BME280;8746;49.230;9.220;2022-07-18T07:03:26;100678.69;;;19.77;40.38
17260;BME280;8746;49.230;9.220;2022-07-18T07:05:51;100676.63;;;19.95;39.38
17260;BME280;8746;49.230;9.220;2022-07-18T07:08:17;100688.09;;;19.97;40.00
17260;BME280;8746;49.230;9.220;2022-07-18T07:10:42;100682.59;;;19.85;39.04
17260;BME280;8746;49.230;9.220;2022-07-18T07:13:07;100680.38;;;20.05;38.93
17260;BME280;8746;49.230;9.220;2022-07-18T07:15:33;100687.25;;;20.22;39.17
17260;BME280;8746;49.230;9.220;2022-07-18T07:17:59;100691.47;;;20.26;38.80
17260;BME280;8746;49.230;9.220;2022-07-18T07:20:24;100687.38;;;20.46;37.86
17260;BME280;8746;49.230;9.220;2022-07-18T07:22:52;100677.28;;;20.50;37.52
17260;BME280;8746;49.230;9.220;2022-07-18T07:25:19;100674.72;;;20.61;37.68
17260;BME280;8746;49.230;9.220;2022-07-18T07:27:45;100675.16;;;20.81;37.26
17260;BME280;8746;49.230;9.220;2022-07-18T07:30:12;100677.41;;;20.87;37.20
17260;BME280;8746;49.230;9.220;2022-07-18T07:32:39;100671.94;;;20.89;38.27
17260;BME280;8746;49.230;9.220;2022-07-18T07:35:06;100675.00;;;20.95;37.01
17260;BME280;8746;49.230;9.220;2022-07-18T07:37:35;100684.44;;;21.01;38.81
17260;BME280;8746;49.230;9.220;2022-07-18T07:40:01;100683.59;;;21.01;37.61
17260;BME280;8746;49.230;9.220;2022-07-18T07:42:27;100680.66;;;21.17;36.94
17260;BME280;8746;49.230;9.220;2022-07-18T07:44:52;100685.28;;;21.39;37.25
17260;BME280;8746;49.230;9.220;2022-07-18T07:47:18;100670.84;;;21.53;37.96
17260;BME280;8746;49.230;9.220;2022-07-18T07:49:43;100670.09;;;21.75;37.11
17260;BME280;8746;49.230;9.220;2022-07-18T07:52:08;100673.34;;;21.91;34.70
17260;BME280;8746;49.230;9.220;2022-07-18T07:54:36;100665.66;;;21.98;33.91
17260;BME280;8746;49.230;9.220;2022-07-18T07:57:02;100663.66;;;22.24;34.97
17260;BME280;8746;49.230;9.220;2022-07-18T07:59:28;100661.44;;;22.30;36.09
17260;BME280;8746;49.230;9.220;2022-07-18T08:01:53;100660.50;;;22.53;35.08
17260;BME280;8746;49.230;9.220;2022-07-18T08:04:20;100657.00;;;22.76;34.51
17260;BME280;8746;49.230;9.220;2022-07-18T08:06:45;100653.16;;;22.89;34.52
17260;BME280;8746;49.230;9.220;2022-07-18T08:09:10;100645.34;;;22.98;34.76
17260;BME280;8746;49.230;9.220;2022-07-18T08:11:36;100640.75;;;23.10;34.02
17260;BME280;8746;49.230;9.220;2022-07-18T08:14:01;100648.22;;;23.06;34.06
17260;BME280;8746;49.230;9.220;2022-07-18T08:16:26;100647.28;;;23.18;33.95
17260;BME280;8746;49.230;9.220;2022-07-18T08:18:52;100642.31;;;23.35;32.89
17260;BME280;8746;49.230;9.220;2022-07-18T08:21:17;100647.19;;;23.41;31.68
17260;BME280;8746;49.230;9.220;2022-07-18T08:23:43;100644.13;;;23.46;31.11
17260;BME280;8746;49.230;9.220;2022-07-18T08:26:10;100653.34;;;23.64;31.48
17260;BME280;8746;49.230;9.220;2022-07-18T08:28:35;100650.06;;;23.82;31.52
17260;BME280;8746;49.230;9.220;2022-07-18T08:31:01;100647.16;;;24.06;30.67
17260;BME280;8746;49.230;9.220;2022-07-18T08:33:26;100640.56;;;24.20;30.52
17260;BME280;8746;49.230;9.220;2022-07-18T08:35:52;100645.47;;;24.36;30.89
17260;BME280;8746;49.230;9.220;2022-07-18T08:38:17;100641.31;;;24.32;30.01
17260;BME280;8746;49.230;9.220;2022-07-18T08:40:44;100639.09;;;24.37;30.25
17260;BME280;8746;49.230;9.220;2022-07-18T08:43:12;100634.75;;;24.46;29.41
17260;BME280;8746;49.230;9.220;2022-07-18T08:45:38;100636.41;;;24.68;29.20
17260;BME280;8746;49.230;9.220;2022-07-18T08:48:05;100642.09;;;24.75;28.64
17260;BME280;8746;49.230;9.220;2022-07-18T08:50:30;100631.63;;;24.82;28.49
17260;BME280;8746;49.230;9.220;2022-07-18T08:52:56;100631.06;;;24.88;27.05
17260;BME280;8746;49.230;9.220;2022-07-18T08:55:21;100625.88;;;25.25;26.91
17260;BME280;8746;49.230;9.220;2022-07-18T08:57:47;100622.63;;;25.22;28.91
17260;BME280;8746;49.230;9.220;2022-07-18T09:00:13;100621.09;;;25.49;26.70
17260;BME280;8746;49.230;9.220;2022-07-18T09:02:38;100621.53;;;25.54;26.37
17260;BME280;8746;49.230;9.220;2022-07-18T09:05:04;100625.63;;;25.68;25.57
17260;BME280;8746;49.230;9.220;2022-07-18T09:07:33;100626.59;;;25.96;26.41
17260;BME280;8746;49.230;9.220;2022-07-18T09:10:04;100622.69;;;26.28;25.49
17260;BME280;8746;49.230;9.220;2022-07-18T09:12:30;100616.56;;;26.26;26.10
17260;BME280;8746;49.230;9.220;2022-07-18T09:14:57;100623.31;;;26.50;25.37
17260;BME280;8746;49.230;9.220;2022-07-18T09:17:27;100617.28;;;26.56;24.79
17260;BME280;8746;49.230;9.220;2022-07-18T09:20:11;100621.44;;;26.88;24.55
17260;BME280;8746;49.230;9.220;2022-07-18T09:22:42;100622.00;;;26.92;24.36
17260;BME280;8746;49.230;9.220;2022-07-18T09:25:11;100612.50;;;27.06;24.27
17260;BME280;8746;49.230;9.220;2022-07-18T09:27:42;100619.72;;;27.15;23.61
17260;BME280;8746;49.230;9.220;2022-07-18T09:32:51;100612.59;;;27.50;24.43
17260;BME280;8746;49.230;9.220;2022-07-18T09:35:27;100605.56;;;27.57;22.10
17260;BME280;8746;49.230;9.220;2022-07-18T09:38:14;100605.56;;;27.57;23.45
17260;BME280;8746;49.230;9.220;2022-07-18T09:40:44;100599.00;;;27.86;23.61
17260;BME280;8746;49.230;9.220;2022-07-18T09:43:15;100609.03;;;28.12;22.46
17260;BME280;8746;49.230;9.220;2022-07-18T09:48:09;100592.63;;;28.22;21.83
17260;BME280;8746;49.230;9.220;2022-07-18T09:50:38;100597.81;;;28.41;20.15
17260;BME280;8746;49.230;9.220;2022-07-18T09:53:33;100593.63;;;28.55;19.92
17260;BME280;8746;49.230;9.220;2022-07-18T09:58:28;100588.91;;;29.25;19.61
17260;BME280;8746;49.230;9.220;2022-07-18T10:00:55;100587.06;;;29.42;19.37
17260;BME280;8746;49.230;9.220;2022-07-18T10:03:22;100592.28;;;29.10;19.06
17260;BME280;8746;49.230;9.220;2022-07-18T10:05:49;100583.34;;;29.35;19.40
17260;BME280;8746;49.230;9.220;2022-07-18T10:08:18;100583.00;;;29.38;19.36
17260;BME280;8746;49.230;9.220;2022-07-18T10:10:45;100589.13;;;29.56;19.35
17260;BME280;8746;49.230;9.220;2022-07-18T10:13:14;100581.78;;;29.90;20.05
17260;BME280;8746;49.230;9.220;2022-07-18T10:15:43;100587.59;;;30.43;18.87
17260;BME280;8746;49.230;9.220;2022-07-18T10:18:14;100582.19;;;30.35;19.02
17260;BME280;8746;49.230;9.220;2022-07-18T10:20:47;100573.66;;;30.38;19.04
17260;BME280;8746;49.230;9.220;2022-07-18T10:23:25;100580.53;;;30.65;19.27
17260;BME280;8746;49.230;9.220;2022-07-18T10:26:23;100579.34;;;30.68;18.94
17260;BME280;8746;49.230;9.220;2022-07-18T10:33:50;100573.22;;;31.82;18.76
17260;BME280;8746;49.230;9.220;2022-07-18T10:36:20;100560.84;;;31.56;17.65
17260;BME280;8746;49.230;9.220;2022-07-18T11:02:40;100551.31;;;33.52;16.77
17260;BME280;8746;49.230;9.220;2022-07-18T11:23:52;100536.25;;;33.91;16.68
17260;BME280;8746;49.230;9.220;2022-07-18T11:26:20;100534.66;;;33.75;16.60
17260;BME280;8746;49.230;9.220;2022-07-18T11:28:47;100529.72;;;34.34;15.93
17260;BME280;8746;49.230;9.220;2022-07-18T11:31:14;100523.53;;;34.60;15.24
17260;BME280;8746;49.230;9.220;2022-07-18T11:33:46;100523.41;;;34.33;15.89
17260;BME280;8746;49.230;9.220;2022-07-18T11:36:14;100522.03;;;34.09;15.80
17260;BME280;8746;49.230;9.220;2022-07-18T11:38:46;100528.03;;;33.56;16.60
17260;BME280;8746;49.230;9.220;2022-07-18T11:41:13;100522.66;;;33.76;16.22
17260;BME280;8746;49.230;9.220;2022-07-18T11:43:39;100514.97;;;34.28;16.36
17260;BME280;8746;49.230;9.220;2022-07-18T11:46:07;100520.84;;;34.25;16.86
17260;BME280;8746;49.230;9.220;2022-07-18T11:48:34;100506.41;;;34.45;16.11
17260;BME280;8746;49.230;9.220;2022-07-18T11:51:00;100504.59;;;34.72;16.06
17260;BME280;8746;49.230;9.220;2022-07-18T11:53:26;100499.63;;;35.09;15.99
17260;BME280;8746;49.230;9.220;2022-07-18T11:55:53;100492.88;;;35.52;14.92
17260;BME280;8746;49.230;9.220;2022-07-18T11:58:20;100497.06;;;35.48;15.12
17260;BME280;8746;49.230;9.220;2022-07-18T12:00:46;100503.78;;;35.79;15.01
17260;BME280;8746;49.230;9.220;2022-07-18T12:03:20;100502.28;;;36.03;15.17
17260;BME280;8746;49.230;9.220;2022-07-18T12:05:50;100494.75;;;35.18;15.67
17260;BME280;8746;49.230;9.220;2022-07-18T12:08:36;100492.00;;;35.58;14.88
17260;BME280;8746;49.230;9.220;2022-07-18T12:13:49;100488.16;;;35.93;14.80
17260;BME280;8746;49.230;9.220;2022-07-18T12:16:41;100492.94;;;36.56;13.68
17260;BME280;8746;49.230;9.220;2022-07-18T12:19:13;100478.63;;;37.12;13.89
17260;BME280;8746;49.230;9.220;2022-07-18T12:27:25;100478.00;;;38.46;13.40
17260;BME280;8746;49.230;9.220;2022-07-18T12:35:18;100466.34;;;38.63;12.61
17260;BME280;8746;49.230;9.220;2022-07-18T12:40:21;100469.03;;;40.00;11.61
17260;BME280;8746;49.230;9.220;2022-07-18T12:42:47;100467.66;;;40.27;11.54
17260;BME280;8746;49.230;9.220;2022-07-18T12:45:14;100474.47;;;40.82;11.11
17260;BME280;8746;49.230;9.220;2022-07-18T12:47:39;100469.25;;;40.68;10.96
17260;BME280;8746;49.230;9.220;2022-07-18T12:50:06;100466.81;;;39.26;11.66
17260;BME280;8746;49.230;9.220;2022-07-18T12:52:33;100463.78;;;37.82;12.33
17260;BME280;8746;49.230;9.220;2022-07-18T12:54:58;100463.25;;;38.22;12.29
17260;BME280;8746;49.230;9.220;2022-07-18T12:57:24;100459.97;;;39.28;11.77
17260;BME280;8746;49.230;9.220;2022-07-18T12:59:50;100458.19;;;39.34;11.53
17260;BME280;8746;49.230;9.220;2022-07-18T13:02:16;100464.59;;;38.38;12.11
17260;BME280;8746;49.230;9.220;2022-07-18T13:04:42;100460.19;;;39.03;11.31
17260;BME280;8746;49.230;9.220;2022-07-18T13:07:08;100459.50;;;40.08;11.13
17260;BME280;8746;49.230;9.220;2022-07-18T13:09:33;100458.28;;;39.75;11.38
17260;BME280;8746;49.230;9.220;2022-07-18T13:11:59;100456.94;;;38.22;12.32
17260;BME280;8746;49.230;9.220;2022-07-18T13:14:25;100452.47;;;38.21;11.97
17260;BME280;8746;49.230;9.220;2022-07-18T13:16:51;100448.75;;;40.35;11.25
17260;BME280;8746;49.230;9.220;2022-07-18T13:19:18;100450.38;;;41.33;10.04
17260;BME280;8746;49.230;9.220;2022-07-18T13:21:45;100443.50;;;41.97;10.47
17260;BME280;8746;49.230;9.220;2022-07-18T13:24:11;100450.50;;;42.55;10.14
17260;BME280;8746;49.230;9.220;2022-07-18T13:26:38;100441.78;;;42.41;9.40
17260;BME280;8746;49.230;9.220;2022-07-18T13:29:04;100448.34;;;39.50;10.63
17260;BME280;8746;49.230;9.220;2022-07-18T13:31:30;100447.16;;;39.34;10.93
17260;BME280;8746;49.230;9.220;2022-07-18T13:33:55;100442.84;;;39.26;11.38
17260;BME280;8746;49.230;9.220;2022-07-18T13:36:21;100435.25;;;41.58;10.07
17260;BME280;8746;49.230;9.220;2022-07-18T13:38:46;100435.22;;;40.85;10.94
17260;BME280;8746;49.230;9.220;2022-07-18T13:41:12;100436.16;;;40.45;10.39
17260;BME280;8746;49.230;9.220;2022-07-18T13:43:39;100427.38;;;42.17;9.92
17260;BME280;8746;49.230;9.220;2022-07-18T13:46:06;100422.25;;;42.31;9.55
17260;BME280;8746;49.230;9.220;2022-07-18T13:48:32;100423.06;;;43.92;8.94
17260;BME280;8746;49.230;9.220;2022-07-18T13:50:57;100424.00;;;42.69;9.21
17260;BME280;8746;49.230;9.220;2022-07-18T13:53:23;100426.97;;;41.41;9.65
17260;BME280;8746;49.230;9.220;2022-07-18T13:55:48;100424.25;;;41.07;10.21
17260;BME280;8746;49.230;9.220;2022-07-18T13:58:13;100423.69;;;40.42;10.22
17260;BME280;8746;49.230;9.220;2022-07-18T14:00:39;100414.75;;;39.06;11.38
17260;BME280;8746;49.230;9.220;2022-07-18T14:03:05;100416.06;;;40.32;11.14
17260;BME280;8746;49.230;9.220;2022-07-18T14:05:31;100411.84;;;41.10;10.31
17260;BME280;8746;49.230;9.220;2022-07-18T14:07:57;100412.19;;;40.96;9.48
17260;BME280;8746;49.230;9.220;2022-07-18T14:10:22;100412.53;;;40.83;9.82